sensor_id;sensor_type;location;lat;lon;timestamp;P1;durP1;ratioP1;P2;durP2;ratioP2
73951;SDS011;62304;47.662;18.324;2023-02-01T00:02:11;7.50;;;2.13;;
73951;SDS011;62304;47.662;18.324;2023-02-01T00:05:14;9.87;;;2.50;;
73951;SDS011;62304;47.662;18.324;2023-02-01T00:08:17;8.15;;;1.85;;
73951;SDS011;62304;47.662;18.324;2023-02-01T00:11:20;5.37;;;1.77;;
73951;SDS011;62304;47.662;18.324;2023-02-01T00:14:24;4.78;;;1.40;;
73951;SDS011;62304;47.662;18.324;2023-02-01T00:17:27;6.17;;;1.27;;
73951;SDS011;62304;47.662;18.324;2023-02-01T00:20:30;3.97;;;1.07;;
73951;SDS011;62304;47.662;18.324;2023-02-01T00:23:34;4.15;;;1.20;;
73951;SDS011;62304;47.662;18.324;2023-02-01T00:26:39;2.45;;;0.70;;
73951;SDS011;62304;47.662;18.324;2023-02-01T00:29:47;4.65;;;1.30;;
73951;SDS011;62304;47.662;18.324;2023-02-01T00:32:50;4.13;;;1.40;;
73951;SDS011;62304;47.662;18.324;2023-02-01T00:36:00;2.13;;;0.53;;
73951;SDS011;62304;47.662;18.324;2023-02-01T00:39:04;4.37;;;1.17;;
73951;SDS011;62304;47.662;18.324;2023-02-01T00:42:07;4.05;;;1.30;;
73951;SDS011;62304;47.662;18.324;2023-02-01T00:45:10;5.95;;;1.60;;
73951;SDS011;62304;47.662;18.324;2023-02-01T00:48:13;6.07;;;1.70;;
73951;SDS011;62304;47.662;18.324;2023-02-01T00:51:19;6.30;;;1.37;;
73951;SDS011;62304;47.662;18.324;2023-02-01T00:54:26;6.62;;;1.67;;
73951;SDS011;62304;47.662;18.324;2023-02-01T00:57:29;9.02;;;1.73;;
73951;SDS011;62304;47.662;18.324;2023-02-01T01:00:33;4.10;;;1.52;;
73951;SDS011;62304;47.662;18.324;2023-02-01T01:03:37;5.60;;;1.40;;
73951;SDS011;62304;47.662;18.324;2023-02-01T01:06:44;3.70;;;1.10;;
73951;SDS011;62304;47.662;18.324;2023-02-01T01:09:46;4.93;;;1.45;;
73951;SDS011;62304;47.662;18.324;2023-02-01T01:12:49;4.55;;;1.73;;
73951;SDS011;62304;47.662;18.324;2023-02-01T01:15:53;3.05;;;0.85;;
73951;SDS011;62304;47.662;18.324;2023-02-01T01:18:56;4.80;;;1.53;;
73951;SDS011;62304;47.662;18.324;2023-02-01T01:22:00;3.57;;;1.37;;
73951;SDS011;62304;47.662;18.324;2023-02-01T01:25:03;4.70;;;1.60;;
73951;SDS011;62304;47.662;18.324;2023-02-01T01:28:06;4.15;;;1.48;;
73951;SDS011;62304;47.662;18.324;2023-02-01T01:31:10;5.22;;;1.60;;
73951;SDS011;62304;47.662;18.324;2023-02-01T01:34:15;4.53;;;1.70;;
73951;SDS011;62304;47.662;18.324;2023-02-01T01:37:18;3.22;;;0.88;;
73951;SDS011;62304;47.662;18.324;2023-02-01T01:40:21;2.67;;;1.05;;
73951;SDS011;62304;47.662;18.324;2023-02-01T01:43:25;5.97;;;1.12;;
73951;SDS011;62304;47.662;18.324;2023-02-01T01:46:48;4.45;;;1.42;;
73951;SDS011;62304;47.662;18.324;2023-02-01T01:49:51;2.77;;;0.77;;
73951;SDS011;62304;47.662;18.324;2023-02-01T01:52:54;3.60;;;1.10;;
73951;SDS011;62304;47.662;18.324;2023-02-01T01:56:01;2.97;;;0.90;;
73951;SDS011;62304;47.662;18.324;2023-02-01T01:59:04;3.33;;;1.12;;
73951;SDS011;62304;47.662;18.324;2023-02-01T02:02:09;3.58;;;1.20;;
73951;SDS011;62304;47.662;18.324;2023-02-01T02:05:13;3.87;;;1.17;;
73951;SDS011;62304;47.662;18.324;2023-02-01T02:08:20;4.72;;;1.20;;
73951;SDS011;62304;47.662;18.324;2023-02-01T02:11:26;3.78;;;1.17;;
73951;SDS011;62304;47.662;18.324;2023-02-01T02:14:29;3.65;;;1.48;;
73951;SDS011;62304;47.662;18.324;2023-02-01T02:17:42;2.92;;;0.60;;
73951;SDS011;62304;47.662;18.324;2023-02-01T02:21:09;3.40;;;1.20;;
73951;SDS011;62304;47.662;18.324;2023-02-01T02:35:02;3.45;;;1.17;;
73951;SDS011;62304;47.662;18.324;2023-02-01T02:38:27;4.07;;;1.20;;
73951;SDS011;62304;47.662;18.324;2023-02-01T02:49:35;2.33;;;0.73;;
73951;SDS011;62304;47.662;18.324;2023-02-01T02:52:45;2.17;;;0.50;;
73951;SDS011;62304;47.662;18.324;2023-02-01T02:56:22;3.60;;;1.03;;
73951;SDS011;62304;47.662;18.324;2023-02-01T02:59:46;3.42;;;0.90;;
73951;SDS011;62304;47.662;18.324;2023-02-01T03:03:09;3.50;;;1.23;;
73951;SDS011;62304;47.662;18.324;2023-02-01T03:06:31;4.12;;;1.20;;
73951;SDS011;62304;47.662;18.324;2023-02-01T03:09:36;3.60;;;1.48;;
73951;SDS011;62304;47.662;18.324;2023-02-01T03:12:42;4.20;;;1.33;;
73951;SDS011;62304;47.662;18.324;2023-02-01T03:19:35;3.95;;;1.70;;
73951;SDS011;62304;47.662;18.324;2023-02-01T03:22:46;3.65;;;1.33;;
73951;SDS011;62304;47.662;18.324;2023-02-01T03:25:51;3.58;;;1.20;;
73951;SDS011;62304;47.662;18.324;2023-02-01T03:29:00;4.23;;;1.30;;
73951;SDS011;62304;47.662;18.324;2023-02-01T03:32:10;3.53;;;1.17;;
73951;SDS011;62304;47.662;18.324;2023-02-01T03:35:14;4.62;;;1.35;;
73951;SDS011;62304;47.662;18.324;2023-02-01T03:38:21;4.62;;;2.10;;
73951;SDS011;62304;47.662;18.324;2023-02-01T03:41:29;3.85;;;1.37;;
73951;SDS011;62304;47.662;18.324;2023-02-01T03:44:39;5.57;;;1.27;;
73951;SDS011;62304;47.662;18.324;2023-02-01T03:47:51;3.92;;;1.50;;
73951;SDS011;62304;47.662;18.324;2023-02-01T03:50:59;7.68;;;3.25;;
73951;SDS011;62304;47.662;18.324;2023-02-01T03:54:07;4.22;;;1.70;;
73951;SDS011;62304;47.662;18.324;2023-02-01T03:57:16;6.85;;;2.17;;
73951;SDS011;62304;47.662;18.324;2023-02-01T04:00:25;5.37;;;1.90;;
73951;SDS011;62304;47.662;18.324;2023-02-01T04:03:29;4.32;;;2.20;;
73951;SDS011;62304;47.662;18.324;2023-02-01T04:06:33;5.03;;;2.00;;
73951;SDS011;62304;47.662;18.324;2023-02-01T04:09:36;4.50;;;1.95;;
73951;SDS011;62304;47.662;18.324;2023-02-01T04:12:40;11.50;;;4.53;;
73951;SDS011;62304;47.662;18.324;2023-02-01T04:15:43;6.43;;;3.07;;
73951;SDS011;62304;47.662;18.324;2023-02-01T04:18:47;8.25;;;4.00;;
73951;SDS011;62304;47.662;18.324;2023-02-01T04:21:51;8.65;;;4.50;;
73951;SDS011;62304;47.662;18.324;2023-02-01T04:24:54;10.23;;;4.75;;
73951;SDS011;62304;47.662;18.324;2023-02-01T04:27:57;7.07;;;3.20;;
73951;SDS011;62304;47.662;18.324;2023-02-01T04:30:59;8.47;;;3.40;;
73951;SDS011;62304;47.662;18.324;2023-02-01T04:34:03;6.55;;;3.00;;
73951;SDS011;62304;47.662;18.324;2023-02-01T04:37:06;6.82;;;2.65;;
73951;SDS011;62304;47.662;18.324;2023-02-01T04:40:10;5.85;;;2.25;;
73951;SDS011;62304;47.662;18.324;2023-02-01T04:43:13;7.35;;;2.47;;
73951;SDS011;62304;47.662;18.324;2023-02-01T04:46:16;6.20;;;2.00;;
73951;SDS011;62304;47.662;18.324;2023-02-01T04:49:19;6.72;;;2.37;;
73951;SDS011;62304;47.662;18.324;2023-02-01T04:52:23;4.40;;;1.55;;
73951;SDS011;62304;47.662;18.324;2023-02-01T04:55:26;5.07;;;2.08;;
73951;SDS011;62304;47.662;18.324;2023-02-01T04:58:29;5.45;;;2.10;;
73951;SDS011;62304;47.662;18.324;2023-02-01T05:01:32;4.57;;;1.73;;
73951;SDS011;62304;47.662;18.324;2023-02-01T05:04:35;3.37;;;1.10;;
73951;SDS011;62304;47.662;18.324;2023-02-01T05:07:38;4.75;;;1.87;;
73951;SDS011;62304;47.662;18.324;2023-02-01T05:10:41;3.47;;;1.35;;
73951;SDS011;62304;47.662;18.324;2023-02-01T05:13:44;3.60;;;1.20;;
73951;SDS011;62304;47.662;18.324;2023-02-01T05:16:50;5.07;;;2.10;;
73951;SDS011;62304;47.662;18.324;2023-02-01T05:19:53;6.53;;;1.60;;
73951;SDS011;62304;47.662;18.324;2023-02-01T05:22:56;4.43;;;2.00;;
73951;SDS011;62304;47.662;18.324;2023-02-01T05:25:59;7.95;;;2.37;;
73951;SDS011;62304;47.662;18.324;2023-02-01T05:29:04;6.53;;;2.47;;
73951;SDS011;62304;47.662;18.324;2023-02-01T05:32:09;4.82;;;2.08;;
73951;SDS011;62304;47.662;18.324;2023-02-01T05:35:23;5.32;;;2.00;;
73951;SDS011;62304;47.662;18.324;2023-02-01T05:38:26;3.28;;;1.00;;
73951;SDS011;62304;47.662;18.324;2023-02-01T05:41:29;5.95;;;2.62;;
73951;SDS011;62304;47.662;18.324;2023-02-01T05:44:32;11.53;;;4.10;;
73951;SDS011;62304;47.662;18.324;2023-02-01T05:47:35;10.27;;;4.18;;
73951;SDS011;62304;47.662;18.324;2023-02-01T05:50:38;7.80;;;3.42;;
73951;SDS011;62304;47.662;18.324;2023-02-01T05:53:43;8.10;;;3.67;;
73951;SDS011;62304;47.662;18.324;2023-02-01T05:56:46;7.43;;;3.00;;
73951;SDS011;62304;47.662;18.324;2023-02-01T05:59:49;4.37;;;2.20;;
73951;SDS011;62304;47.662;18.324;2023-02-01T06:02:52;5.43;;;2.33;;
73951;SDS011;62304;47.662;18.324;2023-02-01T06:05:55;5.62;;;2.30;;
73951;SDS011;62304;47.662;18.324;2023-02-01T06:08:58;12.23;;;3.97;;
73951;SDS011;62304;47.662;18.324;2023-02-01T06:12:01;10.25;;;4.57;;
73951;SDS011;62304;47.662;18.324;2023-02-01T06:15:05;9.03;;;3.37;;
73951;SDS011;62304;47.662;18.324;2023-02-01T06:18:09;8.55;;;3.53;;
73951;SDS011;62304;47.662;18.324;2023-02-01T06:21:12;9.93;;;4.55;;
73951;SDS011;62304;47.662;18.324;2023-02-01T06:24:17;10.20;;;4.72;;
73951;SDS011;62304;47.662;18.324;2023-02-01T06:27:20;14.03;;;7.03;;
73951;SDS011;62304;47.662;18.324;2023-02-01T06:30:23;13.88;;;9.02;;
73951;SDS011;62304;47.662;18.324;2023-02-01T06:33:26;11.93;;;6.87;;
73951;SDS011;62304;47.662;18.324;2023-02-01T06:36:29;16.02;;;7.10;;
73951;SDS011;62304;47.662;18.324;2023-02-01T06:39:32;14.82;;;7.07;;
73951;SDS011;62304;47.662;18.324;2023-02-01T06:42:35;22.57;;;8.37;;
73951;SDS011;62304;47.662;18.324;2023-02-01T06:45:38;17.60;;;8.27;;
73951;SDS011;62304;47.662;18.324;2023-02-01T06:48:42;17.50;;;7.72;;
73951;SDS011;62304;47.662;18.324;2023-02-01T06:51:45;15.35;;;6.53;;
73951;SDS011;62304;47.662;18.324;2023-02-01T06:54:48;17.67;;;7.70;;
73951;SDS011;62304;47.662;18.324;2023-02-01T06:57:54;14.53;;;5.70;;
73951;SDS011;62304;47.662;18.324;2023-02-01T07:00:58;17.60;;;8.87;;
73951;SDS011;62304;47.662;18.324;2023-02-01T07:04:08;17.42;;;8.27;;
73951;SDS011;62304;47.662;18.324;2023-02-01T07:07:13;16.15;;;6.72;;
73951;SDS011;62304;47.662;18.324;2023-02-01T07:10:17;16.05;;;6.45;;
73951;SDS011;62304;47.662;18.324;2023-02-01T07:13:20;15.97;;;6.93;;
73951;SDS011;62304;47.662;18.324;2023-02-01T07:16:23;21.67;;;15.33;;
73951;SDS011;62304;47.662;18.324;2023-02-01T07:19:27;18.70;;;13.43;;
73951;SDS011;62304;47.662;18.324;2023-02-01T07:22:30;12.60;;;6.07;;
73951;SDS011;62304;47.662;18.324;2023-02-01T07:25:34;13.85;;;6.97;;
73951;SDS011;62304;47.662;18.324;2023-02-01T07:28:37;15.83;;;6.47;;
73951;SDS011;62304;47.662;18.324;2023-02-01T07:31:41;15.57;;;9.10;;
73951;SDS011;62304;47.662;18.324;2023-02-01T07:34:44;6.22;;;2.90;;
73951;SDS011;62304;47.662;18.324;2023-02-01T07:37:47;13.40;;;6.45;;
73951;SDS011;62304;47.662;18.324;2023-02-01T07:40:50;18.40;;;9.40;;
73951;SDS011;62304;47.662;18.324;2023-02-01T07:43:53;17.67;;;8.60;;
73951;SDS011;62304;47.662;18.324;2023-02-01T07:46:57;9.02;;;4.05;;
73951;SDS011;62304;47.662;18.324;2023-02-01T07:50:00;12.75;;;6.97;;
73951;SDS011;62304;47.662;18.324;2023-02-01T07:53:03;7.55;;;3.00;;
73951;SDS011;62304;47.662;18.324;2023-02-01T07:56:14;9.40;;;4.07;;
73951;SDS011;62304;47.662;18.324;2023-02-01T07:59:19;9.13;;;5.57;;
73951;SDS011;62304;47.662;18.324;2023-02-01T08:02:22;11.97;;;6.07;;
73951;SDS011;62304;47.662;18.324;2023-02-01T08:05:25;12.13;;;5.28;;
73951;SDS011;62304;47.662;18.324;2023-02-01T08:08:28;10.73;;;4.40;;
73951;SDS011;62304;47.662;18.324;2023-02-01T08:11:32;15.20;;;5.80;;
73951;SDS011;62304;47.662;18.324;2023-02-01T08:14:34;10.63;;;5.43;;
73951;SDS011;62304;47.662;18.324;2023-02-01T08:17:37;11.03;;;6.00;;
73951;SDS011;62304;47.662;18.324;2023-02-01T08:20:40;7.47;;;3.12;;
73951;SDS011;62304;47.662;18.324;2023-02-01T08:23:46;10.43;;;3.80;;
73951;SDS011;62304;47.662;18.324;2023-02-01T08:26:48;9.25;;;3.47;;
73951;SDS011;62304;47.662;18.324;2023-02-01T08:29:52;12.60;;;5.97;;
73951;SDS011;62304;47.662;18.324;2023-02-01T08:32:56;14.33;;;6.23;;
73951;SDS011;62304;47.662;18.324;2023-02-01T08:36:00;8.80;;;4.12;;
73951;SDS011;62304;47.662;18.324;2023-02-01T08:39:04;11.80;;;4.50;;
73951;SDS011;62304;47.662;18.324;2023-02-01T08:42:11;10.75;;;5.32;;
73951;SDS011;62304;47.662;18.324;2023-02-01T08:45:33;12.43;;;4.83;;
73951;SDS011;62304;47.662;18.324;2023-02-01T08:48:36;13.20;;;5.53;;
73951;SDS011;62304;47.662;18.324;2023-02-01T08:51:39;10.60;;;4.15;;
73951;SDS011;62304;47.662;18.324;2023-02-01T08:54:43;9.25;;;4.90;;
73951;SDS011;62304;47.662;18.324;2023-02-01T08:57:45;12.65;;;5.45;;
73951;SDS011;62304;47.662;18.324;2023-02-01T09:00:49;8.90;;;4.80;;
73951;SDS011;62304;47.662;18.324;2023-02-01T09:03:52;12.53;;;6.53;;
73951;SDS011;62304;47.662;18.324;2023-02-01T09:06:55;12.95;;;7.75;;
73951;SDS011;62304;47.662;18.324;2023-02-01T09:09:58;18.85;;;8.55;;
73951;SDS011;62304;47.662;18.324;2023-02-01T09:13:03;10.27;;;4.43;;
73951;SDS011;62304;47.662;18.324;2023-02-01T09:16:06;9.33;;;4.23;;
73951;SDS011;62304;47.662;18.324;2023-02-01T09:19:09;10.70;;;6.30;;
73951;SDS011;62304;47.662;18.324;2023-02-01T09:22:28;11.95;;;6.53;;
73951;SDS011;62304;47.662;18.324;2023-02-01T09:25:31;11.52;;;6.25;;
73951;SDS011;62304;47.662;18.324;2023-02-01T09:28:34;12.93;;;5.57;;
73951;SDS011;62304;47.662;18.324;2023-02-01T09:31:38;9.97;;;4.90;;
73951;SDS011;62304;47.662;18.324;2023-02-01T09:34:51;8.23;;;4.33;;
73951;SDS011;62304;47.662;18.324;2023-02-01T09:37:55;8.52;;;4.53;;
73951;SDS011;62304;47.662;18.324;2023-02-01T09:40:58;8.60;;;4.70;;
73951;SDS011;62304;47.662;18.324;2023-02-01T09:44:06;9.90;;;4.53;;
73951;SDS011;62304;47.662;18.324;2023-02-01T09:47:19;11.50;;;5.03;;
73951;SDS011;62304;47.662;18.324;2023-02-01T09:53:38;17.98;;;7.22;;
73951;SDS011;62304;47.662;18.324;2023-02-01T09:56:49;18.83;;;9.23;;
73951;SDS011;62304;47.662;18.324;2023-02-01T10:00:03;16.15;;;8.00;;
73951;SDS011;62304;47.662;18.324;2023-02-01T10:03:13;19.27;;;8.40;;
73951;SDS011;62304;47.662;18.324;2023-02-01T10:19:33;28.50;;;13.00;;
73951;SDS011;62304;47.662;18.324;2023-02-01T10:22:51;27.13;;;12.90;;
73951;SDS011;62304;47.662;18.324;2023-02-01T10:26:36;19.75;;;8.02;;
73951;SDS011;62304;47.662;18.324;2023-02-01T10:29:48;13.70;;;6.97;;
73951;SDS011;62304;47.662;18.324;2023-02-01T10:33:01;13.52;;;6.57;;
73951;SDS011;62304;47.662;18.324;2023-02-01T10:36:21;15.57;;;6.23;;
73951;SDS011;62304;47.662;18.324;2023-02-01T10:39:32;11.07;;;6.27;;
73951;SDS011;62304;47.662;18.324;2023-02-01T10:42:35;11.75;;;6.40;;
73951;SDS011;62304;47.662;18.324;2023-02-01T10:45:38;14.57;;;7.00;;
73951;SDS011;62304;47.662;18.324;2023-02-01T10:48:44;14.77;;;6.82;;
73951;SDS011;62304;47.662;18.324;2023-02-01T10:51:52;14.73;;;7.97;;
73951;SDS011;62304;47.662;18.324;2023-02-01T10:58:30;13.07;;;6.60;;
73951;SDS011;62304;47.662;18.324;2023-02-01T11:01:37;10.95;;;5.62;;
73951;SDS011;62304;47.662;18.324;2023-02-01T11:04:43;11.10;;;5.15;;
73951;SDS011;62304;47.662;18.324;2023-02-01T11:07:50;11.00;;;6.17;;
73951;SDS011;62304;47.662;18.324;2023-02-01T11:11:01;13.13;;;6.37;;
73951;SDS011;62304;47.662;18.324;2023-02-01T11:14:13;15.88;;;7.85;;
73951;SDS011;62304;47.662;18.324;2023-02-01T11:17:21;16.02;;;7.25;;
73951;SDS011;62304;47.662;18.324;2023-02-01T11:23:39;6.53;;;2.57;;
73951;SDS011;62304;47.662;18.324;2023-02-01T11:26:45;6.10;;;1.53;;
73951;SDS011;62304;47.662;18.324;2023-02-01T11:29:50;5.55;;;2.62;;
73951;SDS011;62304;47.662;18.324;2023-02-01T11:32:55;5.40;;;2.30;;
73951;SDS011;62304;47.662;18.324;2023-02-01T11:36:00;7.37;;;3.22;;
73951;SDS011;62304;47.662;18.324;2023-02-01T11:42:26;4.77;;;2.60;;
73951;SDS011;62304;47.662;18.324;2023-02-01T11:45:31;4.97;;;1.90;;
73951;SDS011;62304;47.662;18.324;2023-02-01T11:48:37;5.50;;;2.70;;
73951;SDS011;62304;47.662;18.324;2023-02-01T12:09:21;3.05;;;1.17;;
73951;SDS011;62304;47.662;18.324;2023-02-01T12:19:00;4.95;;;1.75;;
73951;SDS011;62304;47.662;18.324;2023-02-01T12:22:22;6.07;;;1.67;;
73951;SDS011;62304;47.662;18.324;2023-02-01T12:36:05;9.07;;;4.28;;
73951;SDS011;62304;47.662;18.324;2023-02-01T12:39:17;3.62;;;1.25;;
73951;SDS011;62304;47.662;18.324;2023-02-01T12:42:36;4.10;;;1.85;;
73951;SDS011;62304;47.662;18.324;2023-02-01T12:45:43;4.33;;;2.20;;
73951;SDS011;62304;47.662;18.324;2023-02-01T12:52:07;3.65;;;1.30;;
73951;SDS011;62304;47.662;18.324;2023-02-01T12:55:23;5.62;;;2.95;;
73951;SDS011;62304;47.662;18.324;2023-02-01T13:05:18;6.40;;;2.03;;
73951;SDS011;62304;47.662;18.324;2023-02-01T13:08:24;4.70;;;1.87;;
73951;SDS011;62304;47.662;18.324;2023-02-01T13:11:40;5.47;;;1.30;;
73951;SDS011;62304;47.662;18.324;2023-02-01T13:14:50;3.65;;;1.30;;
73951;SDS011;62304;47.662;18.324;2023-02-01T13:17:58;3.80;;;1.40;;
73951;SDS011;62304;47.662;18.324;2023-02-01T13:21:06;3.90;;;0.93;;
73951;SDS011;62304;47.662;18.324;2023-02-01T13:24:20;4.60;;;1.02;;
73951;SDS011;62304;47.662;18.324;2023-02-01T13:27:30;2.60;;;0.80;;
73951;SDS011;62304;47.662;18.324;2023-02-01T13:44:08;3.37;;;0.50;;
73951;SDS011;62304;47.662;18.324;2023-02-01T13:47:31;5.10;;;1.35;;
73951;SDS011;62304;47.662;18.324;2023-02-01T13:50:38;3.17;;;1.03;;
73951;SDS011;62304;47.662;18.324;2023-02-01T13:53:44;3.63;;;1.00;;
73951;SDS011;62304;47.662;18.324;2023-02-01T13:56:50;3.70;;;1.00;;
73951;SDS011;62304;47.662;18.324;2023-02-01T13:59:53;3.35;;;0.70;;
73951;SDS011;62304;47.662;18.324;2023-02-01T14:03:22;4.62;;;1.45;;
73951;SDS011;62304;47.662;18.324;2023-02-01T14:06:46;2.77;;;0.87;;
73951;SDS011;62304;47.662;18.324;2023-02-01T14:09:49;4.07;;;1.23;;
73951;SDS011;62304;47.662;18.324;2023-02-01T14:12:52;3.20;;;1.08;;
73951;SDS011;62304;47.662;18.324;2023-02-01T14:16:16;4.00;;;1.30;;
73951;SDS011;62304;47.662;18.324;2023-02-01T14:19:26;6.20;;;1.50;;
73951;SDS011;62304;47.662;18.324;2023-02-01T14:22:36;5.40;;;1.03;;
73951;SDS011;62304;47.662;18.324;2023-02-01T14:25:39;5.80;;;1.40;;
73951;SDS011;62304;47.662;18.324;2023-02-01T14:28:43;3.92;;;1.00;;
73951;SDS011;62304;47.662;18.324;2023-02-01T14:35:20;5.22;;;0.80;;
73951;SDS011;62304;47.662;18.324;2023-02-01T14:38:27;4.07;;;0.90;;
73951;SDS011;62304;47.662;18.324;2023-02-01T14:41:33;2.97;;;0.90;;
73951;SDS011;62304;47.662;18.324;2023-02-01T14:44:37;3.85;;;1.02;;
73951;SDS011;62304;47.662;18.324;2023-02-01T14:51:08;4.43;;;2.00;;
73951;SDS011;62304;47.662;18.324;2023-02-01T14:54:16;5.93;;;1.60;;
73951;SDS011;62304;47.662;18.324;2023-02-01T14:57:22;4.13;;;1.33;;
73951;SDS011;62304;47.662;18.324;2023-02-01T15:00:29;6.95;;;1.98;;
73951;SDS011;62304;47.662;18.324;2023-02-01T15:03:50;5.25;;;1.87;;
73951;SDS011;62304;47.662;18.324;2023-02-01T15:06:58;3.78;;;1.15;;
73951;SDS011;62304;47.662;18.324;2023-02-01T15:10:09;6.23;;;2.03;;
73951;SDS011;62304;47.662;18.324;2023-02-01T15:13:17;6.57;;;1.37;;
73951;SDS011;62304;47.662;18.324;2023-02-01T15:16:23;5.68;;;1.80;;
73951;SDS011;62304;47.662;18.324;2023-02-01T15:19:29;5.75;;;2.30;;
73951;SDS011;62304;47.662;18.324;2023-02-01T15:22:35;4.90;;;1.98;;
73951;SDS011;62304;47.662;18.324;2023-02-01T15:25:38;5.47;;;2.33;;
73951;SDS011;62304;47.662;18.324;2023-02-01T15:28:41;5.10;;;2.50;;
73951;SDS011;62304;47.662;18.324;2023-02-01T15:31:45;4.45;;;1.52;;
73951;SDS011;62304;47.662;18.324;2023-02-01T15:34:50;5.80;;;1.70;;
73951;SDS011;62304;47.662;18.324;2023-02-01T15:38:09;5.60;;;1.83;;
73951;SDS011;62304;47.662;18.324;2023-02-01T15:41:29;4.70;;;1.70;;
73951;SDS011;62304;47.662;18.324;2023-02-01T15:44:34;4.37;;;1.37;;
73951;SDS011;62304;47.662;18.324;2023-02-01T15:47:48;5.65;;;2.33;;
73951;SDS011;62304;47.662;18.324;2023-02-01T15:50:53;5.70;;;2.30;;
73951;SDS011;62304;47.662;18.324;2023-02-01T15:54:07;6.22;;;2.80;;
73951;SDS011;62304;47.662;18.324;2023-02-01T15:57:23;5.60;;;2.73;;
73951;SDS011;62304;47.662;18.324;2023-02-01T16:00:43;5.30;;;2.47;;
73951;SDS011;62304;47.662;18.324;2023-02-01T16:07:28;8.32;;;4.43;;
73951;SDS011;62304;47.662;18.324;2023-02-01T16:10:37;14.00;;;5.68;;
73951;SDS011;62304;47.662;18.324;2023-02-01T16:13:45;6.03;;;2.20;;
73951;SDS011;62304;47.662;18.324;2023-02-01T16:16:48;8.53;;;2.80;;
73951;SDS011;62304;47.662;18.324;2023-02-01T16:19:52;4.60;;;2.20;;
73951;SDS011;62304;47.662;18.324;2023-02-01T16:22:55;4.00;;;1.30;;
73951;SDS011;62304;47.662;18.324;2023-02-01T16:25:58;3.05;;;1.20;;
73951;SDS011;62304;47.662;18.324;2023-02-01T16:29:02;4.63;;;1.20;;
73951;SDS011;62304;47.662;18.324;2023-02-01T16:32:18;4.37;;;1.00;;
73951;SDS011;62304;47.662;18.324;2023-02-01T16:35:28;3.47;;;1.17;;
73951;SDS011;62304;47.662;18.324;2023-02-01T16:38:37;6.72;;;2.20;;
73951;SDS011;62304;47.662;18.324;2023-02-01T16:41:41;7.03;;;3.03;;
73951;SDS011;62304;47.662;18.324;2023-02-01T16:44:43;9.97;;;3.50;;
73951;SDS011;62304;47.662;18.324;2023-02-01T16:47:48;15.23;;;2.90;;
73951;SDS011;62304;47.662;18.324;2023-02-01T16:51:01;6.43;;;2.87;;
73951;SDS011;62304;47.662;18.324;2023-02-01T16:54:09;4.40;;;1.23;;
73951;SDS011;62304;47.662;18.324;2023-02-01T16:57:17;7.07;;;1.90;;
73951;SDS011;62304;47.662;18.324;2023-02-01T17:00:22;6.33;;;1.93;;
73951;SDS011;62304;47.662;18.324;2023-02-01T17:03:28;6.83;;;2.30;;
73951;SDS011;62304;47.662;18.324;2023-02-01T17:06:31;9.90;;;4.97;;
73951;SDS011;62304;47.662;18.324;2023-02-01T17:09:36;8.52;;;4.15;;
73951;SDS011;62304;47.662;18.324;2023-02-01T17:12:42;5.75;;;2.12;;
73951;SDS011;62304;47.662;18.324;2023-02-01T17:15:52;3.57;;;1.43;;
73951;SDS011;62304;47.662;18.324;2023-02-01T17:19:06;5.53;;;2.00;;
73951;SDS011;62304;47.662;18.324;2023-02-01T17:22:20;3.47;;;1.02;;
73951;SDS011;62304;47.662;18.324;2023-02-01T17:25:26;6.43;;;2.70;;
73951;SDS011;62304;47.662;18.324;2023-02-01T17:28:31;2.70;;;0.90;;
73951;SDS011;62304;47.662;18.324;2023-02-01T17:31:36;3.00;;;1.07;;
73951;SDS011;62304;47.662;18.324;2023-02-01T17:34:43;3.83;;;1.40;;
73951;SDS011;62304;47.662;18.324;2023-02-01T17:37:53;2.83;;;0.93;;
73951;SDS011;62304;47.662;18.324;2023-02-01T17:40:57;2.85;;;0.88;;
73951;SDS011;62304;47.662;18.324;2023-02-01T17:44:01;3.00;;;1.10;;
73951;SDS011;62304;47.662;18.324;2023-02-01T17:47:07;4.57;;;1.63;;
73951;SDS011;62304;47.662;18.324;2023-02-01T17:50:13;5.23;;;1.63;;
73951;SDS011;62304;47.662;18.324;2023-02-01T17:53:17;2.58;;;0.80;;
73951;SDS011;62304;47.662;18.324;2023-02-01T17:56:23;5.00;;;2.47;;
73951;SDS011;62304;47.662;18.324;2023-02-01T17:59:27;3.40;;;1.48;;
73951;SDS011;62304;47.662;18.324;2023-02-01T18:02:31;4.10;;;1.70;;
73951;SDS011;62304;47.662;18.324;2023-02-01T18:08:42;4.72;;;1.40;;
73951;SDS011;62304;47.662;18.324;2023-02-01T18:11:48;4.40;;;1.90;;
73951;SDS011;62304;47.662;18.324;2023-02-01T18:14:53;4.12;;;1.75;;
73951;SDS011;62304;47.662;18.324;2023-02-01T18:17:58;4.00;;;1.60;;
73951;SDS011;62304;47.662;18.324;2023-02-01T18:21:01;7.77;;;3.33;;
73951;SDS011;62304;47.662;18.324;2023-02-01T18:24:07;11.45;;;5.85;;
73951;SDS011;62304;47.662;18.324;2023-02-01T18:27:15;6.70;;;3.67;;
73951;SDS011;62304;47.662;18.324;2023-02-01T18:30:20;6.43;;;2.95;;
73951;SDS011;62304;47.662;18.324;2023-02-01T18:33:26;6.90;;;3.00;;
73951;SDS011;62304;47.662;18.324;2023-02-01T18:36:31;7.20;;;3.47;;
73951;SDS011;62304;47.662;18.324;2023-02-01T18:39:37;7.97;;;3.70;;
73951;SDS011;62304;47.662;18.324;2023-02-01T18:42:42;8.68;;;3.72;;
73951;SDS011;62304;47.662;18.324;2023-02-01T18:45:46;8.60;;;3.35;;
73951;SDS011;62304;47.662;18.324;2023-02-01T18:48:51;9.37;;;4.23;;
73951;SDS011;62304;47.662;18.324;2023-02-01T18:51:56;15.07;;;5.00;;
73951;SDS011;62304;47.662;18.324;2023-02-01T18:55:02;11.80;;;4.87;;
73951;SDS011;62304;47.662;18.324;2023-02-01T18:58:06;14.23;;;4.87;;
73951;SDS011;62304;47.662;18.324;2023-02-01T19:01:15;13.43;;;6.25;;
73951;SDS011;62304;47.662;18.324;2023-02-01T19:04:21;13.23;;;4.90;;
73951;SDS011;62304;47.662;18.324;2023-02-01T19:07:30;11.10;;;4.33;;
73951;SDS011;62304;47.662;18.324;2023-02-01T19:10:34;11.02;;;5.03;;
73951;SDS011;62304;47.662;18.324;2023-02-01T19:13:41;12.95;;;5.32;;
73951;SDS011;62304;47.662;18.324;2023-02-01T19:16:45;17.27;;;7.65;;
73951;SDS011;62304;47.662;18.324;2023-02-01T19:19:49;20.30;;;9.70;;
73951;SDS011;62304;47.662;18.324;2023-02-01T19:22:53;14.57;;;7.10;;
73951;SDS011;62304;47.662;18.324;2023-02-01T19:25:57;11.98;;;6.12;;
73951;SDS011;62304;47.662;18.324;2023-02-01T19:29:02;12.82;;;6.03;;
73951;SDS011;62304;47.662;18.324;2023-02-01T19:32:07;16.20;;;9.20;;
73951;SDS011;62304;47.662;18.324;2023-02-01T19:35:13;18.83;;;8.43;;
73951;SDS011;62304;47.662;18.324;2023-02-01T19:38:22;8.97;;;4.27;;
73951;SDS011;62304;47.662;18.324;2023-02-01T19:41:29;7.12;;;3.30;;
73951;SDS011;62304;47.662;18.324;2023-02-01T19:44:34;4.37;;;1.87;;
73951;SDS011;62304;47.662;18.324;2023-02-01T19:47:37;4.93;;;2.42;;
73951;SDS011;62304;47.662;18.324;2023-02-01T19:50:45;4.97;;;1.47;;
73951;SDS011;62304;47.662;18.324;2023-02-01T19:53:50;4.73;;;1.63;;
73951;SDS011;62304;47.662;18.324;2023-02-01T19:56:55;3.72;;;1.48;;
73951;SDS011;62304;47.662;18.324;2023-02-01T19:59:59;5.55;;;1.23;;
73951;SDS011;62304;47.662;18.324;2023-02-01T20:03:06;4.43;;;1.30;;
73951;SDS011;62304;47.662;18.324;2023-02-01T20:06:11;6.47;;;2.27;;
73951;SDS011;62304;47.662;18.324;2023-02-01T20:09:16;5.43;;;1.60;;
73951;SDS011;62304;47.662;18.324;2023-02-01T20:12:25;4.60;;;1.70;;
73951;SDS011;62304;47.662;18.324;2023-02-01T20:15:30;3.87;;;1.05;;
73951;SDS011;62304;47.662;18.324;2023-02-01T20:18:35;4.85;;;1.25;;
73951;SDS011;62304;47.662;18.324;2023-02-01T20:21:40;3.43;;;0.90;;
73951;SDS011;62304;47.662;18.324;2023-02-01T20:24:47;2.97;;;0.60;;